sensor_id;sensor_type;location;lat;lon;timestamp;P1;durP1;ratioP1;P2;durP2;ratioP2
8887;SDS011;4480;52.370;9.748;2023-11-21T00:01:01;13.50;;;7.43;;
8887;SDS011;4480;52.370;9.748;2023-11-21T00:03:29;17.02;;;7.70;;
8887;SDS011;4480;52.370;9.748;2023-11-21T00:05:57;12.55;;;6.95;;
8887;SDS011;4480;52.370;9.748;2023-11-21T00:08:23;9.95;;;6.90;;
8887;SDS011;4480;52.370;9.748;2023-11-21T00:10:50;15.18;;;7.50;;
8887;SDS011;4480;52.370;9.748;2023-11-21T00:13:17;12.05;;;7.25;;
8887;SDS011;4480;52.370;9.748;2023-11-21T00:15:44;17.63;;;7.97;;
8887;SDS011;4480;52.370;9.748;2023-11-21T00:18:10;12.70;;;7.45;;
8887;SDS011;4480;52.370;9.748;2023-11-21T00:20:37;15.40;;;8.25;;
8887;SDS011;4480;52.370;9.748;2023-11-21T00:23:05;18.23;;;7.78;;
8887;SDS011;4480;52.370;9.748;2023-11-21T00:25:32;14.23;;;7.75;;
8887;SDS011;4480;52.370;9.748;2023-11-21T00:27:59;19.52;;;8.95;;
8887;SDS011;4480;52.370;9.748;2023-11-21T00:30:26;12.88;;;8.05;;
8887;SDS011;4480;52.370;9.748;2023-11-21T00:32:53;14.15;;;8.27;;
8887;SDS011;4480;52.370;9.748;2023-11-21T00:35:20;15.95;;;8.02;;
8887;SDS011;4480;52.370;9.748;2023-11-21T00:37:47;20.80;;;9.70;;
8887;SDS011;4480;52.370;9.748;2023-11-21T00:40:16;15.48;;;8.38;;
8887;SDS011;4480;52.370;9.748;2023-11-21T00:42:46;12.48;;;7.95;;
8887;SDS011;4480;52.370;9.748;2023-11-21T00:45:12;13.18;;;9.35;;
8887;SDS011;4480;52.370;9.748;2023-11-21T00:47:39;16.33;;;8.30;;
8887;SDS011;4480;52.370;9.748;2023-11-21T00:50:07;16.88;;;8.60;;
8887;SDS011;4480;52.370;9.748;2023-11-21T00:52:34;15.88;;;8.60;;
8887;SDS011;4480;52.370;9.748;2023-11-21T00:55:01;21.13;;;8.80;;
8887;SDS011;4480;52.370;9.748;2023-11-21T00:57:29;18.33;;;8.52;;
8887;SDS011;4480;52.370;9.748;2023-11-21T00:59:56;25.60;;;10.15;;
8887;SDS011;4480;52.370;9.748;2023-11-21T01:02:23;15.18;;;8.05;;
8887;SDS011;4480;52.370;9.748;2023-11-21T01:04:50;18.48;;;9.80;;
8887;SDS011;4480;52.370;9.748;2023-11-21T01:07:17;23.45;;;10.25;;
8887;SDS011;4480;52.370;9.748;2023-11-21T01:09:45;17.45;;;9.93;;
8887;SDS011;4480;52.370;9.748;2023-11-21T01:12:12;25.27;;;10.70;;
8887;SDS011;4480;52.370;9.748;2023-11-21T01:14:40;16.13;;;10.00;;
8887;SDS011;4480;52.370;9.748;2023-11-21T01:17:07;18.05;;;9.98;;
8887;SDS011;4480;52.370;9.748;2023-11-21T01:19:33;17.42;;;9.43;;
8887;SDS011;4480;52.370;9.748;2023-11-21T01:22:00;19.60;;;9.68;;
8887;SDS011;4480;52.370;9.748;2023-11-21T01:24:27;20.80;;;11.57;;
8887;SDS011;4480;52.370;9.748;2023-11-21T01:26:54;18.48;;;10.20;;
8887;SDS011;4480;52.370;9.748;2023-11-21T01:29:20;20.02;;;10.48;;
8887;SDS011;4480;52.370;9.748;2023-11-21T01:31:48;21.83;;;10.93;;
8887;SDS011;4480;52.370;9.748;2023-11-21T01:34:16;25.00;;;11.07;;
8887;SDS011;4480;52.370;9.748;2023-11-21T01:36:45;21.70;;;12.00;;
8887;SDS011;4480;52.370;9.748;2023-11-21T01:39:12;17.35;;;10.52;;
8887;SDS011;4480;52.370;9.748;2023-11-21T01:41:40;26.33;;;13.20;;
8887;SDS011;4480;52.370;9.748;2023-11-21T01:44:09;19.50;;;11.18;;
8887;SDS011;4480;52.370;9.748;2023-11-21T01:46:35;20.52;;;11.50;;
8887;SDS011;4480;52.370;9.748;2023-11-21T01:49:04;20.10;;;11.40;;
8887;SDS011;4480;52.370;9.748;2023-11-21T01:51:31;23.90;;;12.70;;
8887;SDS011;4480;52.370;9.748;2023-11-21T01:53:59;23.85;;;12.40;;
8887;SDS011;4480;52.370;9.748;2023-11-21T01:56:26;21.05;;;12.10;;
8887;SDS011;4480;52.370;9.748;2023-11-21T01:58:53;24.65;;;13.13;;
8887;SDS011;4480;52.370;9.748;2023-11-21T02:01:20;24.30;;;12.55;;
8887;SDS011;4480;52.370;9.748;2023-11-21T02:03:47;23.55;;;13.02;;
8887;SDS011;4480;52.370;9.748;2023-11-21T02:06:15;23.63;;;12.55;;
8887;SDS011;4480;52.370;9.748;2023-11-21T02:08:41;30.13;;;13.73;;
8887;SDS011;4480;52.370;9.748;2023-11-21T02:11:09;30.08;;;12.90;;
8887;SDS011;4480;52.370;9.748;2023-11-21T02:13:37;22.73;;;12.25;;
8887;SDS011;4480;52.370;9.748;2023-11-21T02:16:08;22.35;;;12.30;;
8887;SDS011;4480;52.370;9.748;2023-11-21T02:18:35;33.13;;;14.93;;
8887;SDS011;4480;52.370;9.748;2023-11-21T02:21:04;23.52;;;12.85;;
8887;SDS011;4480;52.370;9.748;2023-11-21T02:23:32;26.10;;;14.07;;
8887;SDS011;4480;52.370;9.748;2023-11-21T02:25:59;26.38;;;13.63;;
8887;SDS011;4480;52.370;9.748;2023-11-21T02:28:29;39.20;;;12.82;;
8887;SDS011;4480;52.370;9.748;2023-11-21T02:30:56;31.20;;;12.80;;
8887;SDS011;4480;52.370;9.748;2023-11-21T02:33:24;27.85;;;13.48;;
8887;SDS011;4480;52.370;9.748;2023-11-21T02:35:51;33.35;;;13.65;;
8887;SDS011;4480;52.370;9.748;2023-11-21T02:38:19;27.42;;;15.27;;
8887;SDS011;4480;52.370;9.748;2023-11-21T02:40:48;24.92;;;13.18;;
8887;SDS011;4480;52.370;9.748;2023-11-21T02:43:15;33.40;;;13.95;;
8887;SDS011;4480;52.370;9.748;2023-11-21T02:45:41;30.30;;;13.65;;
8887;SDS011;4480;52.370;9.748;2023-11-21T02:48:08;30.98;;;13.98;;
8887;SDS011;4480;52.370;9.748;2023-11-21T02:50:35;25.02;;;13.98;;
8887;SDS011;4480;52.370;9.748;2023-11-21T02:53:02;28.40;;;13.75;;
8887;SDS011;4480;52.370;9.748;2023-11-21T02:55:30;27.10;;;14.57;;
8887;SDS011;4480;52.370;9.748;2023-11-21T02:58:01;31.98;;;13.98;;
8887;SDS011;4480;52.370;9.748;2023-11-21T03:00:28;25.70;;;13.70;;
8887;SDS011;4480;52.370;9.748;2023-11-21T03:02:55;34.90;;;17.55;;
8887;SDS011;4480;52.370;9.748;2023-11-21T03:05:22;28.80;;;15.57;;
8887;SDS011;4480;52.370;9.748;2023-11-21T03:07:49;30.88;;;15.38;;
8887;SDS011;4480;52.370;9.748;2023-11-21T03:10:16;27.52;;;15.75;;
8887;SDS011;4480;52.370;9.748;2023-11-21T03:12:42;30.05;;;14.77;;
8887;SDS011;4480;52.370;9.748;2023-11-21T03:15:11;28.58;;;13.50;;
8887;SDS011;4480;52.370;9.748;2023-11-21T03:17:38;30.15;;;16.45;;
8887;SDS011;4480;52.370;9.748;2023-11-21T03:20:06;35.40;;;16.23;;
8887;SDS011;4480;52.370;9.748;2023-11-21T03:22:36;36.45;;;15.43;;
8887;SDS011;4480;52.370;9.748;2023-11-21T03:25:03;28.20;;;15.45;;
8887;SDS011;4480;52.370;9.748;2023-11-21T03:27:30;31.63;;;16.77;;
8887;SDS011;4480;52.370;9.748;2023-11-21T03:29:57;32.80;;;15.48;;
8887;SDS011;4480;52.370;9.748;2023-11-21T03:32:26;29.77;;;14.57;;
8887;SDS011;4480;52.370;9.748;2023-11-21T03:34:53;33.10;;;15.30;;
8887;SDS011;4480;52.370;9.748;2023-11-21T03:37:21;32.13;;;15.55;;
8887;SDS011;4480;52.370;9.748;2023-11-21T03:39:48;29.70;;;14.88;;
8887;SDS011;4480;52.370;9.748;2023-11-21T03:42:15;30.80;;;16.38;;
8887;SDS011;4480;52.370;9.748;2023-11-21T03:44:42;30.67;;;15.95;;
8887;SDS011;4480;52.370;9.748;2023-11-21T03:47:09;30.27;;;16.58;;
8887;SDS011;4480;52.370;9.748;2023-11-21T03:49:37;27.08;;;16.85;;
8887;SDS011;4480;52.370;9.748;2023-11-21T03:52:04;28.27;;;15.45;;
8887;SDS011;4480;52.370;9.748;2023-11-21T03:54:32;34.13;;;16.35;;
8887;SDS011;4480;52.370;9.748;2023-11-21T03:56:59;40.70;;;19.00;;
8887;SDS011;4480;52.370;9.748;2023-11-21T03:59:26;36.33;;;19.08;;
8887;SDS011;4480;52.370;9.748;2023-11-21T04:01:54;33.15;;;17.10;;
8887;SDS011;4480;52.370;9.748;2023-11-21T04:04:21;39.45;;;19.65;;
8887;SDS011;4480;52.370;9.748;2023-11-21T04:06:50;42.67;;;18.35;;
8887;SDS011;4480;52.370;9.748;2023-11-21T04:12:35;50.05;;;21.63;;
8887;SDS011;4480;52.370;9.748;2023-11-21T04:15:02;43.33;;;18.52;;
8887;SDS011;4480;52.370;9.748;2023-11-21T04:17:30;43.42;;;20.80;;
8887;SDS011;4480;52.370;9.748;2023-11-21T04:19:57;40.20;;;19.98;;
8887;SDS011;4480;52.370;9.748;2023-11-21T04:24:49;40.60;;;18.37;;
8887;SDS011;4480;52.370;9.748;2023-11-21T04:27:15;45.58;;;20.50;;
8887;SDS011;4480;52.370;9.748;2023-11-21T04:29:44;46.45;;;22.80;;
8887;SDS011;4480;52.370;9.748;2023-11-21T04:32:11;37.75;;;20.92;;
8887;SDS011;4480;52.370;9.748;2023-11-21T04:34:38;45.35;;;21.88;;
8887;SDS011;4480;52.370;9.748;2023-11-21T04:37:05;47.70;;;19.85;;
8887;SDS011;4480;52.370;9.748;2023-11-21T04:39:32;55.63;;;20.67;;
8887;SDS011;4480;52.370;9.748;2023-11-21T04:41:58;42.20;;;18.90;;
8887;SDS011;4480;52.370;9.748;2023-11-21T04:44:25;48.60;;;21.67;;
8887;SDS011;4480;52.370;9.748;2023-11-21T04:46:53;35.03;;;17.92;;
8887;SDS011;4480;52.370;9.748;2023-11-21T04:49:20;35.55;;;18.08;;
8887;SDS011;4480;52.370;9.748;2023-11-21T04:51:47;44.70;;;20.60;;
8887;SDS011;4480;52.370;9.748;2023-11-21T04:54:14;40.58;;;20.10;;
8887;SDS011;4480;52.370;9.748;2023-11-21T04:56:40;43.25;;;19.88;;
8887;SDS011;4480;52.370;9.748;2023-11-21T04:59:07;37.10;;;18.98;;
8887;SDS011;4480;52.370;9.748;2023-11-21T05:01:34;41.03;;;18.27;;
8887;SDS011;4480;52.370;9.748;2023-11-21T05:04:03;42.05;;;18.45;;
8887;SDS011;4480;52.370;9.748;2023-11-21T05:06:31;41.78;;;19.95;;
8887;SDS011;4480;52.370;9.748;2023-11-21T05:08:58;35.33;;;17.20;;
8887;SDS011;4480;52.370;9.748;2023-11-21T05:11:25;35.85;;;17.60;;
8887;SDS011;4480;52.370;9.748;2023-11-21T05:13:51;38.35;;;16.35;;
8887;SDS011;4480;52.370;9.748;2023-11-21T05:16:20;37.30;;;16.77;;
8887;SDS011;4480;52.370;9.748;2023-11-21T05:18:47;35.70;;;16.55;;
8887;SDS011;4480;52.370;9.748;2023-11-21T05:21:17;32.85;;;16.90;;
8887;SDS011;4480;52.370;9.748;2023-11-21T05:23:46;35.58;;;16.38;;
8887;SDS011;4480;52.370;9.748;2023-11-21T05:26:12;35.28;;;17.75;;
8887;SDS011;4480;52.370;9.748;2023-11-21T05:28:39;38.95;;;16.38;;
8887;SDS011;4480;52.370;9.748;2023-11-21T05:31:06;31.92;;;13.85;;
8887;SDS011;4480;52.370;9.748;2023-11-21T05:33:33;31.38;;;13.25;;
8887;SDS011;4480;52.370;9.748;2023-11-21T05:35:59;29.48;;;14.70;;
8887;SDS011;4480;52.370;9.748;2023-11-21T05:38:27;28.42;;;13.70;;
8887;SDS011;4480;52.370;9.748;2023-11-21T05:40:55;33.85;;;14.38;;
8887;SDS011;4480;52.370;9.748;2023-11-21T05:43:23;30.85;;;14.93;;
8887;SDS011;4480;52.370;9.748;2023-11-21T05:45:50;29.17;;;14.10;;
8887;SDS011;4480;52.370;9.748;2023-11-21T05:48:17;25.05;;;13.45;;
8887;SDS011;4480;52.370;9.748;2023-11-21T05:50:43;26.27;;;14.23;;
8887;SDS011;4480;52.370;9.748;2023-11-21T05:53:10;26.80;;;12.75;;
8887;SDS011;4480;52.370;9.748;2023-11-21T05:55:38;27.23;;;12.90;;
8887;SDS011;4480;52.370;9.748;2023-11-21T05:58:05;22.90;;;11.15;;
8887;SDS011;4480;52.370;9.748;2023-11-21T06:00:32;23.02;;;12.10;;
8887;SDS011;4480;52.370;9.748;2023-11-21T06:02:59;26.65;;;11.88;;
8887;SDS011;4480;52.370;9.748;2023-11-21T06:05:26;22.98;;;11.20;;
8887;SDS011;4480;52.370;9.748;2023-11-21T06:07:53;16.50;;;8.05;;
8887;SDS011;4480;52.370;9.748;2023-11-21T06:10:23;19.42;;;10.48;;
8887;SDS011;4480;52.370;9.748;2023-11-21T06:12:52;19.85;;;10.57;;
8887;SDS011;4480;52.370;9.748;2023-11-21T06:15:19;24.02;;;10.10;;
8887;SDS011;4480;52.370;9.748;2023-11-21T06:17:47;18.70;;;11.10;;
8887;SDS011;4480;52.370;9.748;2023-11-21T06:20:17;19.88;;;11.15;;
8887;SDS011;4480;52.370;9.748;2023-11-21T06:22:44;21.80;;;11.52;;
8887;SDS011;4480;52.370;9.748;2023-11-21T06:25:14;21.98;;;10.98;;
8887;SDS011;4480;52.370;9.748;2023-11-21T06:27:41;18.23;;;10.90;;
8887;SDS011;4480;52.370;9.748;2023-11-21T06:30:11;22.35;;;12.32;;
8887;SDS011;4480;52.370;9.748;2023-11-21T06:32:40;19.35;;;10.90;;
8887;SDS011;4480;52.370;9.748;2023-11-21T06:35:10;21.65;;;11.90;;
8887;SDS011;4480;52.370;9.748;2023-11-21T06:37:38;19.13;;;11.57;;
8887;SDS011;4480;52.370;9.748;2023-11-21T06:40:05;20.65;;;11.32;;
8887;SDS011;4480;52.370;9.748;2023-11-21T06:42:34;22.33;;;11.90;;
8887;SDS011;4480;52.370;9.748;2023-11-21T06:45:03;18.20;;;10.95;;
8887;SDS011;4480;52.370;9.748;2023-11-21T06:47:32;14.48;;;9.27;;
8887;SDS011;4480;52.370;9.748;2023-11-21T06:49:58;15.55;;;8.55;;
8887;SDS011;4480;52.370;9.748;2023-11-21T06:52:26;15.15;;;9.02;;
8887;SDS011;4480;52.370;9.748;2023-11-21T06:54:52;14.35;;;8.95;;
8887;SDS011;4480;52.370;9.748;2023-11-21T06:57:19;14.15;;;8.93;;
8887;SDS011;4480;52.370;9.748;2023-11-21T06:59:46;14.80;;;8.98;;
8887;SDS011;4480;52.370;9.748;2023-11-21T07:02:13;13.25;;;8.35;;
8887;SDS011;4480;52.370;9.748;2023-11-21T07:04:44;16.13;;;9.13;;
8887;SDS011;4480;52.370;9.748;2023-11-21T07:07:11;13.85;;;8.48;;
8887;SDS011;4480;52.370;9.748;2023-11-21T07:09:38;11.40;;;8.23;;
8887;SDS011;4480;52.370;9.748;2023-11-21T07:12:05;15.27;;;8.00;;
8887;SDS011;4480;52.370;9.748;2023-11-21T07:14:33;9.77;;;7.45;;
8887;SDS011;4480;52.370;9.748;2023-11-21T07:16:59;12.60;;;7.25;;
8887;SDS011;4480;52.370;9.748;2023-11-21T07:19:26;10.65;;;7.90;;
8887;SDS011;4480;52.370;9.748;2023-11-21T07:21:55;8.38;;;6.38;;
8887;SDS011;4480;52.370;9.748;2023-11-21T07:24:22;10.57;;;8.20;;
8887;SDS011;4480;52.370;9.748;2023-11-21T07:26:49;11.75;;;8.65;;
8887;SDS011;4480;52.370;9.748;2023-11-21T07:29:15;10.63;;;7.72;;
8887;SDS011;4480;52.370;9.748;2023-11-21T07:31:42;11.07;;;7.47;;
8887;SDS011;4480;52.370;9.748;2023-11-21T07:34:09;13.45;;;7.70;;
8887;SDS011;4480;52.370;9.748;2023-11-21T07:36:37;12.85;;;7.65;;
8887;SDS011;4480;52.370;9.748;2023-11-21T07:39:05;11.82;;;8.35;;
8887;SDS011;4480;52.370;9.748;2023-11-21T07:41:32;10.77;;;7.38;;
8887;SDS011;4480;52.370;9.748;2023-11-21T07:43:58;13.35;;;6.72;;
8887;SDS011;4480;52.370;9.748;2023-11-21T07:46:25;10.90;;;7.20;;
8887;SDS011;4480;52.370;9.748;2023-11-21T07:48:52;10.93;;;7.10;;
8887;SDS011;4480;52.370;9.748;2023-11-21T07:51:18;10.50;;;8.17;;
8887;SDS011;4480;52.370;9.748;2023-11-21T07:53:45;11.20;;;7.65;;
8887;SDS011;4480;52.370;9.748;2023-11-21T07:56:13;12.13;;;8.32;;
8887;SDS011;4480;52.370;9.748;2023-11-21T07:58:40;11.00;;;8.25;;
8887;SDS011;4480;52.370;9.748;2023-11-21T08:01:06;10.60;;;8.27;;
8887;SDS011;4480;52.370;9.748;2023-11-21T08:03:34;11.50;;;8.50;;
8887;SDS011;4480;52.370;9.748;2023-11-21T08:06:00;10.40;;;8.48;;
8887;SDS011;4480;52.370;9.748;2023-11-21T08:08:28;16.00;;;9.70;;
8887;SDS011;4480;52.370;9.748;2023-11-21T08:10:55;14.82;;;10.27;;
8887;SDS011;4480;52.370;9.748;2023-11-21T08:13:23;18.58;;;10.75;;
8887;SDS011;4480;52.370;9.748;2023-11-21T08:15:53;15.35;;;11.00;;
8887;SDS011;4480;52.370;9.748;2023-11-21T08:18:21;15.18;;;9.55;;
8887;SDS011;4480;52.370;9.748;2023-11-21T08:20:48;15.27;;;11.10;;
8887;SDS011;4480;52.370;9.748;2023-11-21T08:23:15;16.13;;;10.05;;
8887;SDS011;4480;52.370;9.748;2023-11-21T08:25:42;16.70;;;10.40;;
8887;SDS011;4480;52.370;9.748;2023-11-21T08:28:09;14.60;;;10.75;;
8887;SDS011;4480;52.370;9.748;2023-11-21T08:30:37;15.15;;;10.68;;
8887;SDS011;4480;52.370;9.748;2023-11-21T08:33:06;16.95;;;11.65;;
8887;SDS011;4480;52.370;9.748;2023-11-21T08:35:33;17.73;;;12.10;;
8887;SDS011;4480;52.370;9.748;2023-11-21T08:38:01;16.35;;;12.02;;
8887;SDS011;4480;52.370;9.748;2023-11-21T08:40:28;18.88;;;12.60;;
8887;SDS011;4480;52.370;9.748;2023-11-21T08:42:55;18.40;;;11.80;;
8887;SDS011;4480;52.370;9.748;2023-11-21T08:45:23;17.70;;;12.63;;
8887;SDS011;4480;52.370;9.748;2023-11-21T08:47:52;22.70;;;13.25;;
8887;SDS011;4480;52.370;9.748;2023-11-21T08:50:19;15.25;;;11.23;;
8887;SDS011;4480;52.370;9.748;2023-11-21T08:52:46;15.57;;;11.57;;
8887;SDS011;4480;52.370;9.748;2023-11-21T08:55:13;16.65;;;11.30;;
8887;SDS011;4480;52.370;9.748;2023-11-21T08:57:41;14.90;;;11.25;;
8887;SDS011;4480;52.370;9.748;2023-11-21T09:00:10;15.88;;;11.02;;
8887;SDS011;4480;52.370;9.748;2023-11-21T09:02:37;16.75;;;11.80;;
8887;SDS011;4480;52.370;9.748;2023-11-21T09:05:08;16.70;;;10.77;;
8887;SDS011;4480;52.370;9.748;2023-11-21T09:07:36;13.48;;;10.60;;
8887;SDS011;4480;52.370;9.748;2023-11-21T09:10:04;11.07;;;9.50;;
8887;SDS011;4480;52.370;9.748;2023-11-21T09:12:34;10.43;;;8.57;;
8887;SDS011;4480;52.370;9.748;2023-11-21T09:15:02;13.73;;;10.15;;
8887;SDS011;4480;52.370;9.748;2023-11-21T09:17:30;12.77;;;9.60;;
8887;SDS011;4480;52.370;9.748;2023-11-21T09:19:57;14.45;;;10.00;;
8887;SDS011;4480;52.370;9.748;2023-11-21T09:22:25;11.10;;;8.30;;
8887;SDS011;4480;52.370;9.748;2023-11-21T09:24:52;14.35;;;10.05;;
8887;SDS011;4480;52.370;9.748;2023-11-21T09:27:18;12.98;;;9.57;;
8887;SDS011;4480;52.370;9.748;2023-11-21T09:29:46;14.35;;;9.90;;
8887;SDS011;4480;52.370;9.748;2023-11-21T09:32:14;10.55;;;8.40;;
8887;SDS011;4480;52.370;9.748;2023-11-21T09:34:41;12.98;;;8.95;;
8887;SDS011;4480;52.370;9.748;2023-11-21T09:37:08;10.15;;;7.82;;
8887;SDS011;4480;52.370;9.748;2023-11-21T09:39:36;13.60;;;9.15;;
8887;SDS011;4480;52.370;9.748;2023-11-21T09:42:05;10.15;;;7.60;;
8887;SDS011;4480;52.370;9.748;2023-11-21T09:44:36;11.75;;;8.98;;
8887;SDS011;4480;52.370;9.748;2023-11-21T09:47:14;11.73;;;8.50;;
8887;SDS011;4480;52.370;9.748;2023-11-21T09:49:42;9.32;;;8.40;;
8887;SDS011;4480;52.370;9.748;2023-11-21T09:52:15;11.43;;;8.40;;
8887;SDS011;4480;52.370;9.748;2023-11-21T09:54:51;11.30;;;8.60;;
8887;SDS011;4480;52.370;9.748;2023-11-21T09:57:19;8.57;;;7.25;;
8887;SDS011;4480;52.370;9.748;2023-11-21T09:59:48;8.77;;;7.80;;
8887;SDS011;4480;52.370;9.748;2023-11-21T10:02:19;9.45;;;7.70;;
8887;SDS011;4480;52.370;9.748;2023-11-21T10:04:51;9.27;;;6.90;;
8887;SDS011;4480;52.370;9.748;2023-11-21T10:07:18;12.15;;;8.88;;
8887;SDS011;4480;52.370;9.748;2023-11-21T10:09:46;13.82;;;8.90;;
8887;SDS011;4480;52.370;9.748;2023-11-21T10:12:15;11.60;;;8.15;;
8887;SDS011;4480;52.370;9.748;2023-11-21T10:14:42;10.48;;;8.55;;
8887;SDS011;4480;52.370;9.748;2023-11-21T10:17:12;8.05;;;7.25;;
8887;SDS011;4480;52.370;9.748;2023-11-21T10:19:43;11.48;;;8.40;;
8887;SDS011;4480;52.370;9.748;2023-11-21T10:22:13;8.82;;;6.57;;
8887;SDS011;4480;52.370;9.748;2023-11-21T10:24:41;9.35;;;7.57;;
8887;SDS011;4480;52.370;9.748;2023-11-21T10:27:08;9.07;;;6.93;;
8887;SDS011;4480;52.370;9.748;2023-11-21T10:29:36;10.35;;;7.10;;
8887;SDS011;4480;52.370;9.748;2023-11-21T10:32:05;10.10;;;7.35;;
8887;SDS011;4480;52.370;9.748;2023-11-21T10:34:32;8.93;;;6.80;;
8887;SDS011;4480;52.370;9.748;2023-11-21T10:37:01;9.02;;;6.55;;
8887;SDS011;4480;52.370;9.748;2023-11-21T10:39:38;8.27;;;6.88;;
8887;SDS011;4480;52.370;9.748;2023-11-21T10:42:07;8.07;;;6.85;;
8887;SDS011;4480;52.370;9.748;2023-11-21T10:44:36;10.27;;;6.68;;
8887;SDS011;4480;52.370;9.748;2023-11-21T10:47:03;8.98;;;6.05;;
8887;SDS011;4480;52.370;9.748;2023-11-21T10:49:30;8.02;;;6.15;;
8887;SDS011;4480;52.370;9.748;2023-11-21T10:51:57;8.23;;;6.28;;
8887;SDS011;4480;52.370;9.748;2023-11-21T10:54:24;7.00;;;5.78;;
8887;SDS011;4480;52.370;9.748;2023-11-21T10:56:53;9.18;;;6.70;;
8887;SDS011;4480;52.370;9.748;2023-11-21T10:59:22;9.20;;;7.55;;
8887;SDS011;4480;52.370;9.748;2023-11-21T11:01:52;7.72;;;6.18;;
8887;SDS011;4480;52.370;9.748;2023-11-21T11:04:20;10.70;;;7.45;;
8887;SDS011;4480;52.370;9.748;2023-11-21T11:06:51;7.85;;;5.97;;
8887;SDS011;4480;52.370;9.748;2023-11-21T11:09:21;7.70;;;5.68;;
8887;SDS011;4480;52.370;9.748;2023-11-21T11:11:48;8.43;;;6.10;;
8887;SDS011;4480;52.370;9.748;2023-11-21T11:14:17;6.88;;;5.63;;
8887;SDS011;4480;52.370;9.748;2023-11-21T11:16:50;8.13;;;6.18;;
8887;SDS011;4480;52.370;9.748;2023-11-21T11:19:18;6.20;;;5.38;;
8887;SDS011;4480;52.370;9.748;2023-11-21T11:21:46;6.13;;;5.53;;
8887;SDS011;4480;52.370;9.748;2023-11-21T11:24:27;8.43;;;6.50;;
8887;SDS011;4480;52.370;9.748;2023-11-21T11:27:06;8.45;;;6.68;;
8887;SDS011;4480;52.370;9.748;2023-11-21T11:29:42;6.55;;;5.72;;
8887;SDS011;4480;52.370;9.748;2023-11-21T11:32:20;9.63;;;6.65;;
8887;SDS011;4480;52.370;9.748;2023-11-21T11:34:59;7.90;;;5.95;;
8887;SDS011;4480;52.370;9.748;2023-11-21T11:37:31;5.88;;;4.75;;
8887;SDS011;4480;52.370;9.748;2023-11-21T11:39:58;7.57;;;5.97;;
8887;SDS011;4480;52.370;9.748;2023-11-21T11:42:26;7.13;;;6.25;;
8887;SDS011;4480;52.370;9.748;2023-11-21T11:44:54;7.30;;;6.43;;
8887;SDS011;4480;52.370;9.748;2023-11-21T11:47:23;6.60;;;5.25;;
8887;SDS011;4480;52.370;9.748;2023-11-21T11:49:58;6.22;;;5.38;;
8887;SDS011;4480;52.370;9.748;2023-11-21T11:52:39;6.93;;;4.88;;
8887;SDS011;4480;52.370;9.748;2023-11-21T11:55:06;7.60;;;5.35;;
8887;SDS011;4480;52.370;9.748;2023-11-21T11:57:36;9.00;;;5.68;;
8887;SDS011;4480;52.370;9.748;2023-11-21T12:00:16;6.85;;;5.72;;
8887;SDS011;4480;52.370;9.748;2023-11-21T12:02:50;6.13;;;5.47;;
8887;SDS011;4480;52.370;9.748;2023-11-21T12:05:20;6.32;;;5.57;;
8887;SDS011;4480;52.370;9.748;2023-11-21T12:07:49;7.70;;;5.45;;
8887;SDS011;4480;52.370;9.748;2023-11-21T12:10:18;6.80;;;6.20;;
8887;SDS011;4480;52.370;9.748;2023-11-21T12:12:46;6.30;;;5.10;;
8887;SDS011;4480;52.370;9.748;2023-11-21T12:15:14;5.82;;;5.22;;
8887;SDS011;4480;52.370;9.748;2023-11-21T12:17:41;6.50;;;5.15;;
8887;SDS011;4480;52.370;9.748;2023-11-21T12:20:09;6.10;;;5.50;;
8887;SDS011;4480;52.370;9.748;2023-11-21T12:22:45;7.35;;;4.95;;
8887;SDS011;4480;52.370;9.748;2023-11-21T12:25:14;5.53;;;5.00;;
8887;SDS011;4480;52.370;9.748;2023-11-21T12:27:44;5.07;;;4.68;;
8887;SDS011;4480;52.370;9.748;2023-11-21T12:30:12;7.68;;;4.38;;
8887;SDS011;4480;52.370;9.748;2023-11-21T12:32:40;4.80;;;4.40;;
8887;SDS011;4480;52.370;9.748;2023-11-21T12:35:08;4.78;;;4.20;;
8887;SDS011;4480;52.370;9.748;2023-11-21T12:37:36;5.38;;;4.78;;
8887;SDS011;4480;52.370;9.748;2023-11-21T12:40:06;5.15;;;4.35;;
8887;SDS011;4480;52.370;9.748;2023-11-21T12:42:36;6.93;;;4.53;;
8887;SDS011;4480;52.370;9.748;2023-11-21T12:45:07;4.57;;;4.03;;
8887;SDS011;4480;52.370;9.748;2023-11-21T12:47:39;5.78;;;5.18;;
8887;SDS011;4480;52.370;9.748;2023-11-21T12:50:07;7.13;;;4.63;;
8887;SDS011;4480;52.370;9.748;2023-11-21T12:52:39;8.23;;;4.78;;
8887;SDS011;4480;52.370;9.748;2023-11-21T12:55:10;5.03;;;4.45;;
8887;SDS011;4480;52.370;9.748;2023-11-21T12:57:41;7.88;;;5.40;;
8887;SDS011;4480;52.370;9.748;2023-11-21T13:00:09;5.25;;;4.72;;
8887;SDS011;4480;52.370;9.748;2023-11-21T13:02:49;7.00;;;5.35;;
8887;SDS011;4480;52.370;9.748;2023-11-21T13:05:23;6.90;;;5.63;;
8887;SDS011;4480;52.370;9.748;2023-11-21T13:07:50;4.97;;;4.47;;
8887;SDS011;4480;52.370;9.748;2023-11-21T13:10:21;6.00;;;5.25;;
8887;SDS011;4480;52.370;9.748;2023-11-21T13:12:51;6.00;;;5.40;;
8887;SDS011;4480;52.370;9.748;2023-11-21T13:15:19;5.78;;;5.00;;
8887;SDS011;4480;52.370;9.748;2023-11-21T13:17:46;7.07;;;5.38;;
8887;SDS011;4480;52.370;9.748;2023-11-21T13:20:13;7.10;;;5.15;;
8887;SDS011;4480;52.370;9.748;2023-11-21T13:22:46;6.35;;;4.97;;
8887;SDS011;4480;52.370;9.748;2023-11-21T13:25:14;5.80;;;4.20;;
8887;SDS011;4480;52.370;9.748;2023-11-21T13:27:44;6.00;;;5.05;;
8887;SDS011;4480;52.370;9.748;2023-11-21T13:30:11;7.45;;;5.78;;
8887;SDS011;4480;52.370;9.748;2023-11-21T13:32:41;4.75;;;4.03;;
8887;SDS011;4480;52.370;9.748;2023-11-21T13:35:08;7.65;;;5.30;;
8887;SDS011;4480;52.370;9.748;2023-11-21T13:37:45;7.90;;;5.35;;
8887;SDS011;4480;52.370;9.748;2023-11-21T13:40:18;6.75;;;5.70;;
8887;SDS011;4480;52.370;9.748;2023-11-21T13:42:49;6.80;;;5.25;;
8887;SDS011;4480;52.370;9.748;2023-11-21T13:45:18;6.10;;;5.50;;
8887;SDS011;4480;52.370;9.748;2023-11-21T13:47:47;5.50;;;5.07;;
8887;SDS011;4480;52.370;9.748;2023-11-21T13:50:16;6.57;;;5.55;;
8887;SDS011;4480;52.370;9.748;2023-11-21T13:52:47;6.85;;;4.97;;
8887;SDS011;4480;52.370;9.748;2023-11-21T13:55:15;5.93;;;4.47;;
8887;SDS011;4480;52.370;9.748;2023-11-21T13:57:43;5.97;;;5.47;;
8887;SDS011;4480;52.370;9.748;2023-11-21T14:00:16;6.10;;;4.50;;
8887;SDS011;4480;52.370;9.748;2023-11-21T14:02:57;5.10;;;4.60;;
8887;SDS011;4480;52.370;9.748;2023-11-21T14:05:25;5.15;;;4.28;;
8887;SDS011;4480;52.370;9.748;2023-11-21T14:07:55;4.82;;;4.32;;
8887;SDS011;4480;52.370;9.748;2023-11-21T14:10:27;7.70;;;4.55;;
8887;SDS011;4480;52.370;9.748;2023-11-21T14:13:02;5.43;;;4.93;;
8887;SDS011;4480;52.370;9.748;2023-11-21T14:15:32;5.60;;;5.00;;
8887;SDS011;4480;52.370;9.748;2023-11-21T14:18:03;5.50;;;4.53;;
8887;SDS011;4480;52.370;9.748;2023-11-21T14:20:33;4.68;;;3.95;;
8887;SDS011;4480;52.370;9.748;2023-11-21T14:23:01;4.63;;;4.07;;
8887;SDS011;4480;52.370;9.748;2023-11-21T14:25:28;4.57;;;4.18;;
8887;SDS011;4480;52.370;9.748;2023-11-21T14:27:55;5.60;;;4.57;;
8887;SDS011;4480;52.370;9.748;2023-11-21T14:30:22;6.13;;;4.85;;
8887;SDS011;4480;52.370;9.748;2023-11-21T14:32:51;4.07;;;3.72;;
8887;SDS011;4480;52.370;9.748;2023-11-21T14:35:18;5.43;;;4.50;;
8887;SDS011;4480;52.370;9.748;2023-11-21T14:37:45;6.18;;;4.95;;
8887;SDS011;4480;52.370;9.748;2023-11-21T14:40:12;5.47;;;4.70;;
8887;SDS011;4480;52.370;9.748;2023-11-21T14:42:41;5.60;;;5.10;;
8887;SDS011;4480;52.370;9.748;2023-11-21T14:45:08;5.68;;;4.65;;
8887;SDS011;4480;52.370;9.748;2023-11-21T14:47:37;5.30;;;4.80;;
8887;SDS011;4480;52.370;9.748;2023-11-21T14:50:10;6.47;;;5.65;;
8887;SDS011;4480;52.370;9.748;2023-11-21T14:52:51;7.75;;;5.05;;
8887;SDS011;4480;52.370;9.748;2023-11-21T14:55:24;7.25;;;6.03;;
8887;SDS011;4480;52.370;9.748;2023-11-21T14:57:56;7.05;;;5.97;;
8887;SDS011;4480;52.370;9.748;2023-11-21T15:00:27;6.97;;;5.47;;
8887;SDS011;4480;52.370;9.748;2023-11-21T15:03:06;7.78;;;5.53;;
8887;SDS011;4480;52.370;9.748;2023-11-21T15:05:35;6.15;;;5.47;;
8887;SDS011;4480;52.370;9.748;2023-11-21T15:08:03;6.93;;;5.90;;
8887;SDS011;4480;52.370;9.748;2023-11-21T15:10:46;6.85;;;5.88;;
8887;SDS011;4480;52.370;9.748;2023-11-21T15:13:18;5.75;;;5.25;;